Nogales International Airport Nogales US
ICAO: KOLS
IATA: OLS
Category: Medium
Scheduled Services: No

Elevation: 3955 ft
TransAlt. 18000 ft.

Airport Communications:
TUCSON APP DEP:125.1
ASOS:121.125
PRESCOTT RDO:122.4
CTAF/UNICOM:122.8

KOLS Zoom In..

If Map Doesn't Load, Click Here

Runways:

(A) RW 03 length 7200 ft width 100 ft
---- / hdg 34

(B) RW 21 length 7200 ft width 100 ft
---- / hdg 214

Location; KOLS
Day. 21 / Time. 13.54 Zulu
* Altimeter: 30.14
* Temperature: 17° c. 62.6°f.
* Wind from: 000° Speed 00 kn.
Dewpoint: 15° c.
Visibility: 10 Statute Miles.
Clouds: Clear (automated report).

KOLS 211354Z AUTO 00000KT 10SM CLR 17/15 A3014 RMK AO2 SLP151 T01670150


Wind - Calm.

 
 
jpsmedia.com for Web Design worldairports.se 2018   terms of use